Latest Weather Observations for Launceston Airport

IDT60801

Issued at 11:35 pm EDT Wednesday 22 October 2014 (issued every 30 minutes, with the page automatically refreshed every 10 minutes)

About weather observations | Map of weather stations | Latest weather observations for TAS | Other Formats
Station Details ID: 091311 Name: LAUNCESTON AIRPORT Lat: -41.55 Lon: 147.21 Height: 166.9 m
Data from the previous 72 hours. | See also: Recent months at Launceston Airport
Date/Time
EDT
Temp
°C
App
Temp
°C
Dew
Point
Rel
Hum
%
Delta-T
°C
Wind Press
QNH
hPa
Press
MSL
hPa
Rain
since 9 am
mm
Dir
 
Spd
km/h
Gust
km/h
Spd
kts
Gust
kts
22/11:30pm 11.9 9.3 9.5 85 1.2 S 13 17 7 9 1017.7 1017.8 0.0
22/11:00pm 11.1 9.5 8.7 85 1.2 SSE 7 9 4 5 1017.4 1017.5 0.0
22/10:30pm 11.0 9.4 8.6 85 1.2 E 7 11 4 6 1016.8 1016.9 0.0
22/10:00pm 13.1 12.3 9.7 80 1.8 NW 4 7 2 4 1017.1 1017.2 0.0
22/09:30pm 14.0 10.0 9.2 73 2.5 N 20 24 11 13 1016.4 1016.5 0.0
22/09:00pm 15.1 12.0 8.8 66 3.2 N 15 22 8 12 1016.5 1016.6 0.0
22/08:30pm 16.6 12.2 8.8 60 4.0 WNW 22 33 12 18 1016.0 1016.1 0.0
22/08:00pm 16.1 12.7 9.3 64 3.5 NW 17 24 9 13 1014.6 1014.7 0.0
22/07:30pm 16.4 13.5 9.6 64 3.6 NNW 15 20 8 11 1014.6 1014.7 0.0
22/07:00pm 17.3 13.7 9.7 61 4.0 N 19 24 10 13 1014.6 1014.7 0.0
22/06:30pm 18.0 13.3 9.4 57 4.5 NNW 24 33 13 18 1015.5 1015.6 0.0
22/06:00pm 19.6 15.5 10.0 54 5.2 NW 22 32 12 17 1015.0 1015.1 0.0
22/05:30pm 19.3 15.0 10.6 57 4.7 NNW 24 32 13 17 1014.8 1014.9 0.0
22/05:00pm 20.3 15.3 11.0 55 5.1 NNW 28 35 15 19 1015.1 1015.2 0.0
22/04:30pm 21.8 16.2 10.0 47 6.4 NNW 30 39 16 21 1015.3 1015.4 0.0
22/04:00pm 21.7 16.7 11.1 51 5.9 NNW 28 35 15 19 1015.4 1015.5 0.0
22/03:30pm 21.7 16.7 10.8 50 6.0 NNW 28 35 15 19 1015.6 1015.7 0.0
22/03:00pm 22.9 17.4 10.7 46 6.8 NNW 30 37 16 20 1015.8 1015.9 0.0
22/02:30pm 21.8 16.3 10.6 49 6.2 NNW 30 41 16 22 1016.3 1016.4 0.0
22/02:00pm 21.5 15.9 10.0 48 6.3 NNW 30 41 16 22 1016.8 1016.9 0.0
22/01:30pm 20.6 16.3 10.7 53 5.4 NW 24 33 13 18 1017.5 1017.6 0.0
22/01:00pm 20.2 15.9 10.9 55 5.1 NW 24 33 13 18 1017.9 1018.0 0.0
22/12:30pm 19.4 15.5 10.7 57 4.8 NW 22 30 12 16 1018.8 1018.9 0.0
22/12:00pm 18.6 15.1 10.9 61 4.2 NW 20 26 11 14 1019.4 1019.5 0.0
22/11:30am 18.0 14.3 10.1 60 4.2 NNW 20 30 11 16 1020.3 1020.4 0.0
22/11:00am 16.7 13.5 9.9 64 3.6 N 17 20 9 11 1020.6 1020.7 0.0
22/10:30am 16.7 13.0 9.6 63 3.7 NNW 19 28 10 15 1021.2 1021.3 0.0
22/10:00am 15.7 12.6 8.7 63 3.6 NW 15 22 8 12 1021.7 1021.8 0.0
22/09:30am 14.4 12.5 9.0 70 2.8 NNE 9 15 5 8 1021.8 1021.9 0.0
22/09:00am 13.0 12.3 8.5 74 2.3 N 2 7 1 4 1022.3 1022.4 0.0
22/08:30am 11.5 9.7 7.0 74 2.2 NE 6 9 3 5 1022.4 1022.5 0.0
22/08:00am 9.8 7.8 6.3 79 1.6 ENE 6 11 3 6 1022.7 1022.8 0.0
22/07:30am 9.9 9.2 6.8 81 1.5 CALM 0 6 0 3 1022.8 1022.9 0.0
22/07:00am 7.9 7.0 6.2 89 0.8 CALM 0 0 0 0 1023.0 1023.1 0.0
22/06:30am 5.3 2.8 3.5 88 0.8 E 6 9 3 5 1023.3 1023.5 0.0
22/06:00am 5.6 3.9 3.8 88 0.8 E 2 11 1 6 1023.4 1023.6 0.0
22/05:30am 5.3 3.5 3.3 87 0.8 SSE 2 7 1 4 1023.7 1023.9 0.0
22/05:00am 5.4 3.6 3.4 87 0.8 ENE 2 6 1 3 1023.9 1024.1 0.0
22/04:30am 5.7 4.4 3.9 88 0.8 CALM 0 0 0 0 1024.4 1024.5 0.0
22/04:00am 6.0 4.7 4.3 89 0.7 CALM 0 0 0 0 1024.6 1024.7 0.0
22/03:30am 5.4 2.2 3.1 85 1.0 ENE 9 13 5 7 1025.1 1025.2 0.0
22/03:00am 6.8 4.3 4.6 86 1.0 WSW 7 9 4 5 1025.8 1025.9 0.0
22/02:30am 5.4 2.9 3.6 88 0.8 E 6 9 3 5 1026.2 1026.3 0.0
22/02:00am 7.4 5.7 4.2 80 1.4 W 2 11 1 6 1026.5 1026.6 0.0
22/01:30am 6.9 4.4 4.0 82 1.3 WSW 6 11 3 6 1027.1 1027.2 0.0
22/01:00am 6.9 4.3 4.0 82 1.2 N 7 9 4 5 1027.6 1027.7 0.0
22/12:30am 8.2 5.3 4.6 78 1.6 NNW 9 15 5 8 1027.8 1027.9 0.0
22/12:00am 7.5 4.2 4.6 82 1.3 N 11 17 6 9 1028.3 1028.5 0.0
 
Date/Time
EDT
Temp
°C
App
Temp
°C
Dew
Point
Rel
Hum
%
Delta-T
°C
Wind Press
QNH
hPa
Press
MSL
hPa
Rain
since 9 am
mm
Dir
 
Spd
km/h
Gust
km/h
Spd
kts
Gust
kts
21/11:30pm 9.7 4.4 4.9 72 2.2 NNW 22 30 12 16 1028.4 1028.6 0.0
21/11:00pm 10.1 4.1 5.3 72 2.2 NNW 26 35 14 19 1028.6 1028.8 0.0
21/10:30pm 9.6 4.8 5.4 75 1.9 N 20 26 11 14 1029.0 1029.2 0.0
21/10:00pm 8.9 4.0 5.3 78 1.6 NNW 20 22 11 12 1029.1 1029.3 0.0
21/09:30pm 9.5 4.7 5.5 76 1.8 NW 20 24 11 13 1029.0 1029.2 0.0
21/09:00pm 10.0 5.4 5.8 75 1.9 NNW 19 22 10 12 1029.0 1029.2 0.0
21/08:30pm 12.1 7.4 6.2 67 2.8 WNW 20 26 11 14 1028.6 1028.8 0.0
21/08:00pm 12.8 8.1 6.2 64 3.1 NW 20 26 11 14 1028.3 1028.5 0.0
21/07:30pm 13.3 8.2 6.2 62 3.4 NW 22 28 12 15 1028.3 1028.5 0.0
21/07:00pm 14.5 9.1 6.3 58 4.0 NW 24 30 13 16 1028.2 1028.4 0.0
21/06:30pm 15.5 10.1 6.2 54 4.5 NW 24 32 13 17 1028.3 1028.5 0.0
21/06:00pm 16.4 11.3 6.2 51 5.0 NW 22 28 12 15 1028.5 1028.7 0.0
21/05:30pm 17.2 12.2 6.4 49 5.4 NW 22 26 12 14 1028.6 1028.8 0.0
21/05:00pm 17.9 14.2 6.1 46 5.8 WNW 15 26 8 14 1028.6 1028.8 0.0
21/04:30pm 18.1 14.4 6.3 46 5.9 NW 15 26 8 14 1028.9 1029.1 0.0
21/04:00pm 17.7 13.8 5.3 44 6.0 NW 15 26 8 14 1029.3 1029.5 0.0
21/03:30pm 17.8 14.9 6.7 48 5.6 NW 11 17 6 9 1029.8 1030.0 0.0
21/03:00pm 17.0 13.1 5.3 46 5.6 WNW 15 26 8 14 1030.3 1030.5 0.0
21/02:30pm 16.4 12.8 4.8 46 5.5 NNW 13 20 7 11 1030.9 1031.0 0.0
21/02:00pm 16.3 13.4 4.7 46 5.5 NW 9 17 5 9 1031.5 1031.6 0.0
21/01:30pm 16.1 12.6 5.4 49 5.2 WNW 13 17 7 9 1031.9 1032.0 0.0
21/01:00pm 15.8 12.3 5.4 50 5.0 NW 13 24 7 13 1032.3 1032.4 0.0
21/12:30pm 15.4 12.4 5.9 53 4.6 NW 11 22 6 12 1032.6 1032.7 0.0
21/12:00pm 14.5 10.8 4.2 50 4.7 NW 13 26 7 14 1033.0 1033.1 0.0
21/11:30am 14.6 12.0 6.2 57 4.1 NW 9 22 5 12 1033.4 1033.6 0.0
21/11:00am 12.5 9.0 3.7 55 3.9 WNW 11 17 6 9 1033.8 1034.0 0.0
21/10:30am 13.0 10.1 4.7 57 3.8 ENE 9 15 5 8 1034.2 1034.4 0.0
21/10:00am 12.5 10.4 4.0 56 3.8 SE 4 9 2 5 1034.4 1034.6 0.0
21/09:30am 12.0 8.6 4.2 59 3.5 ESE 11 15 6 8 1034.5 1034.7 0.0
21/09:00am 11.6 8.3 4.6 62 3.2 SSE 11 15 6 8 1034.6 1034.8 0.0
21/08:30am 10.1 7.1 4.3 67 2.6 S 9 13 5 7 1034.6 1034.8 0.0
21/08:00am 7.7 6.4 4.1 78 1.6 CALM 0 0 0 0 1034.7 1034.9 0.0
21/07:30am 5.9 4.6 3.9 87 0.9 CALM 0 0 0 0 1034.5 1034.7 0.0
21/07:00am 4.1 1.4 2.8 91 0.5 SSE 6 7 3 4 1034.2 1034.4 0.0
21/06:30am 3.3 -0.1 2.1 92 0.5 SSE 9 9 5 5 1034.0 1034.2 0.0
21/06:00am 2.7 -0.7 1.7 93 0.4 SSE 9 11 5 6 1033.4 1033.6 0.0
21/05:30am 2.4 0.5 0.3 86 0.8 CALM 0 0 0 0 1033.4 1033.6 0.0
21/05:00am 3.9 0.8 1.6 85 0.9 SW 7 7 4 4 1033.3 1033.5 0.0
21/04:30am 4.3 1.5 2.0 85 0.9 SW 6 9 3 5 1033.2 1033.4 0.0
21/04:00am 3.6 1.8 1.2 84 0.9 CALM 0 7 0 4 1033.3 1033.5 0.0
21/03:30am 5.0 3.4 2.2 82 1.1 CALM 0 0 0 0 1033.5 1033.7 0.0
21/03:00am 4.4 2.4 2.3 86 0.8 ESE 2 6 1 3 1033.8 1034.0 0.0
21/02:30am 4.7 2.6 1.6 80 1.2 W 2 7 1 4 1033.8 1034.0 0.0
21/02:00am 5.3 2.3 2.0 79 1.3 S 7 7 4 4 1034.1 1034.3 0.0
21/01:30am 6.1 3.3 2.2 76 1.6 S 6 7 3 4 1034.2 1034.4 0.0
21/01:00am 6.6 3.7 2.7 76 1.6 S 7 7 4 4 1034.5 1034.7 0.0
21/12:30am 5.9 2.6 2.5 79 1.4 SSW 9 11 5 6 1034.8 1035.0 0.0
21/12:00am 4.4 1.3 1.6 82 1.1 S 7 9 4 5 1034.8 1035.0 0.0
 
Date/Time
EDT
Temp
°C
App
Temp
°C
Dew
Point
Rel
Hum
%
Delta-T
°C
Wind Press
QNH
hPa
Press
MSL
hPa
Rain
since 9 am
mm
Dir
 
Spd
km/h
Gust
km/h
Spd
kts
Gust
kts
20/11:30pm 5.0 1.6 2.0 81 1.2 S 9 9 5 5 1034.9 1035.1 0.0
20/11:00pm 4.7 1.3 1.9 82 1.1 SE 9 11 5 6 1035.1 1035.3 0.0
20/10:30pm 6.0 1.9 2.3 77 1.5 NW 13 15 7 8 1035.0 1035.2 0.0
20/10:00pm 5.4 1.2 1.7 77 1.5 NNW 13 15 7 8 1034.9 1035.1 0.0
20/09:30pm 6.7 2.2 2.0 72 1.9 NW 15 19 8 10 1034.9 1035.1 0.0
20/09:00pm 7.9 3.1 2.8 70 2.1 NW 17 20 9 11 1034.5 1034.7 0.0
20/08:30pm 7.7 2.6 2.8 71 2.1 NNW 19 24 10 13 1033.9 1034.1 0.0
20/08:00pm 8.5 2.7 2.5 66 2.5 NNW 22 24 12 13 1033.4 1033.6 0.0
20/07:30pm 9.4 3.2 2.3 61 3.0 NNW 24 30 13 16 1033.0 1033.1 0.0
20/07:00pm 10.8 5.3 2.1 55 3.7 NNW 20 26 11 14 1032.5 1032.6 0.0
20/06:30pm 12.4 6.5 1.4 47 4.7 NNW 22 28 12 15 1032.4 1032.5 0.0
20/06:00pm 13.6 7.7 1.9 45 5.1 NNW 22 28 12 15 1032.3 1032.4 0.0
20/05:30pm 14.4 9.7 1.0 40 5.8 NNW 15 32 8 17 1032.1 1032.2 0.0
20/05:00pm 15.4 12.2 -0.4 34 6.6 NNW 6 19 3 10 1032.0 1032.1 0.0
20/04:30pm 15.3 12.0 -0.9 33 6.8 N 6 17 3 9 1032.1 1032.2 0.0
20/04:00pm 15.6 11.7 1.3 38 6.2 N 11 17 6 9 1032.2 1032.3 0.0
20/03:30pm 15.0 11.9 1.2 39 6.0 WSW 7 15 4 8 1032.4 1032.5 0.0
20/03:00pm 14.6 11.7 1.2 40 5.8 W 6 13 3 7 1032.6 1032.7 0.0
20/02:30pm 14.3 9.9 0.5 39 5.9 NNW 13 20 7 11 1032.9 1033.0 0.0
20/02:00pm 13.8 10.7 1.1 42 5.4 ESE 7 11 4 6 1033.2 1033.4 0.0
20/01:30pm 12.8 9.2 0.5 43 5.2 SSW 9 15 5 8 1033.4 1033.6 0.0
20/01:00pm 12.6 9.1 1.0 45 4.9 SE 9 15 5 8 1033.5 1033.7 0.0
20/12:30pm 12.4 8.2 1.4 47 4.7 SSE 13 20 7 11 1033.9 1034.1 0.0
20/12:00pm 11.7 7.4 1.1 48 4.4 SE 13 24 7 13 1033.8 1034.0 0.0
20/11:30am 11.1 5.3 -0.1 46 4.6 SSE 20 28 11 15 1034.1 1034.3 0.0
20/11:00am 10.9 4.5 1.2 51 4.0 SSE 24 32 13 17 1034.3 1034.5 0.0
20/10:30am 10.9 5.5 2.5 56 3.6 SSE 20 30 11 16 1034.3 1034.5 0.0
20/10:00am 9.3 2.9 0.7 55 3.5 SSE 24 32 13 17 1034.0 1034.2 0.0
20/09:30am 9.0 3.4 1.2 58 3.2 SSE 20 26 11 14 1033.8 1034.0 0.0
20/09:00am 7.4 2.2 0.2 60 2.8 SSE 17 24 9 13 1033.6 1033.8 0.8
20/08:30am 6.9 2.7 1.6 69 2.2 SSE 13 19 7 10 1033.2 1033.4 0.8
20/08:00am 5.2 0.5 0.8 73 1.7 SSE 15 20 8 11 1032.9 1033.0 0.8
20/07:30am 3.5 -1.0 0.0 78 1.3 SSE 13 15 7 8 1032.6 1032.7 0.8
20/07:00am 2.1 -2.0 -0.5 83 0.9 S 11 15 6 8 1032.3 1032.4 0.8
20/06:30am 1.6 -3.8 -1.1 82 1.0 SSE 17 19 9 10 1032.0 1032.1 0.8
20/06:00am 1.3 -3.3 -1.4 82 0.9 SSE 13 17 7 9 1031.2 1031.3 0.8
20/05:30am 1.5 -3.1 -0.7 85 0.8 SSE 13 17 7 9 1030.8 1030.9 0.8
20/05:00am 1.3 -3.3 -0.8 86 0.7 SSE 13 17 7 9 1030.1 1030.3 0.8
20/04:30am 2.0 -1.9 -1.2 79 1.2 SE 9 13 5 7 1030.1 1030.3 0.8
20/04:00am 3.8 0.0 -0.4 74 1.6 S 9 15 5 8 1030.0 1030.2 0.8
20/03:30am 2.8 -0.9 -0.3 80 1.2 S 9 11 5 6 1029.8 1030.0 0.8
20/03:00am 3.1 -0.6 0.2 81 1.1 S 9 11 5 6 1029.2 1029.4 0.8
20/02:30am 3.2 -0.2 -0.4 77 1.3 SE 7 9 4 5 1028.7 1028.9 0.8
20/02:00am 3.6 0.3 0.0 77 1.3 SE 7 11 4 6 1028.4 1028.6 0.8
20/01:30am 4.9 0.1 0.5 73 1.7 S 15 19 8 10 1027.8 1027.9 0.8
20/01:00am 6.5 -0.5 -0.2 62 2.6 ESE 26 39 14 21 1027.6 1027.7 0.8
20/12:30am 6.6 0.4 -0.4 61 2.7 S 22 32 12 17 1027.5 1027.6 0.8
20/12:00am 6.4 -0.2 -0.1 63 2.5 S 24 33 13 18 1027.0 1027.1 0.8

Other Formats:

Comma delimited format used in spreadsheet applications
http://www.bom.gov.au/fwo/IDT60801/IDT60801.95966.axf

JavaScript Object Notation format (JSON) in row-major order
http://www.bom.gov.au/fwo/IDT60801/IDT60801.95966.json